Terminal Aerodrome Forecast
Issued by NWS Upton, NY

Home | Current Version | Previous Version | Text Only | Print | Product List | Glossary On
Versions: 1 2 3 4 5 6 7 8 9 10 11 12 13 14 15 16 17 18 19 20 21 22 23
533
FTUS41 KOKX 232329
TAFLGA
TAF
KLGA 232329Z 2400/2424 17010KT P6SM BKN250
     FM240300 17005KT P6SM BKN250
     FM240800 13003KT P6SM BKN250
     FM241300 08005KT P6SM SCT120 OVC200
     FM241800 08010KT P6SM BKN100
     FM242200 09010KT P6SM VCSH SCT050 BKN080=

USA.gov is the U.S. government's official web portal to all federal, state and local government web resources and services.